Terminal Aerodrome Forecast
Issued by NWS Wilmington, OH

Current Version | Previous Version | Graphics & Text | Print | Product List | Glossary On
Versions: 1 2 3 4 5 6 7 8 9 10 11 12 13 14 15 16 17 18 19 20 21 22 23 24 25 26 27 28
000
FTUS41 KILN 111100
TAFCVG
TAF
KCVG 111131Z 1112/1218 02003KT P6SM SKC
     FM111500 15004KT P6SM SCT060
     FM120100 VRB03KT P6SM SCT200
     FM121500 22005KT P6SM FEW050 BKN120=

USA.gov is the U.S. government's official web portal to all federal, state and local government web resources and services.